createdAt,value
2023-05-18T00:02:23.940Z,10.10
2023-05-18T00:04:52.258Z,10.00
2023-05-18T00:07:21.745Z,10.00
2023-05-18T00:12:30.516Z,9.90
2023-05-18T00:14:58.589Z,9.90
2023-05-18T00:17:26.660Z,9.80
2023-05-18T00:19:54.732Z,9.80
2023-05-18T00:22:23.002Z,9.70
2023-05-18T00:24:51.127Z,9.70
2023-05-18T00:27:19.236Z,9.60
2023-05-18T00:29:48.854Z,9.60
2023-05-18T00:32:16.974Z,9.60
2023-05-18T00:34:45.061Z,9.60
2023-05-18T00:37:13.175Z,9.50
2023-05-18T00:39:41.250Z,9.40
2023-05-18T00:42:09.376Z,9.50
2023-05-18T00:44:37.443Z,9.40
2023-05-18T00:47:07.509Z,9.40
2023-05-18T00:49:35.705Z,9.40
2023-05-18T00:52:06.427Z,9.30
2023-05-18T00:54:34.783Z,9.30
2023-05-18T00:57:03.191Z,9.30
2023-05-18T00:59:32.799Z,9.20
2023-05-18T01:02:01.681Z,9.20
2023-05-18T01:04:31.938Z,9.20
2023-05-18T01:07:06.789Z,9.10
2023-05-18T01:09:35.923Z,9.10
2023-05-18T01:12:13.997Z,9.10
2023-05-18T01:14:49.927Z,9.10
2023-05-18T01:17:27.279Z,9.10
2023-05-18T01:20:20.504Z,9.00
2023-05-18T01:23:13.962Z,9.00
2023-05-18T01:25:51.109Z,9.00
2023-05-18T01:28:22.861Z,8.90
2023-05-18T01:30:52.004Z,9.00
2023-05-18T01:33:20.352Z,8.90
2023-05-18T01:35:49.067Z,8.90
2023-05-18T01:38:18.957Z,8.90
2023-05-18T01:40:55.405Z,8.90
2023-05-18T01:43:31.031Z,8.90
2023-05-18T01:46:05.862Z,8.80
2023-05-18T01:48:39.126Z,8.90
2023-05-18T01:51:09.599Z,8.90
2023-05-18T01:53:44.810Z,8.80
2023-05-18T01:56:15.202Z,8.70
2023-05-18T01:58:45.298Z,8.80
2023-05-18T02:01:13.631Z,8.80
2023-05-18T02:03:41.809Z,8.70
2023-05-18T02:06:10.005Z,8.70
2023-05-18T02:08:38.266Z,8.70
2023-05-18T02:11:06.466Z,8.70
2023-05-18T02:13:34.636Z,8.70
2023-05-18T02:16:05.047Z,8.70
2023-05-18T02:18:36.315Z,8.60
2023-05-18T02:21:05.133Z,8.60
2023-05-18T02:23:34.006Z,8.60
2023-05-18T02:26:02.568Z,8.60
2023-05-18T02:28:30.802Z,8.60
2023-05-18T02:31:08.181Z,8.60
2023-05-18T02:33:39.921Z,8.60
2023-05-18T02:36:13.600Z,8.60
2023-05-18T02:38:43.355Z,8.50
2023-05-18T02:41:12.185Z,8.50
2023-05-18T02:43:40.546Z,8.50
2023-05-18T02:46:10.079Z,8.50
2023-05-18T02:48:38.269Z,8.40
2023-05-18T02:51:06.564Z,8.40
2023-05-18T02:53:34.666Z,8.40
2023-05-18T02:56:03.936Z,8.40
2023-05-18T02:58:32.193Z,8.40
2023-05-18T03:01:00.981Z,8.30
2023-05-18T03:03:30.899Z,8.40
2023-05-18T03:06:00.509Z,8.30
2023-05-18T03:08:28.903Z,8.30
2023-05-18T03:10:57.073Z,8.40
2023-05-18T03:13:25.271Z,8.30
2023-05-18T03:15:53.526Z,8.30
2023-05-18T03:18:21.648Z,8.30
2023-05-18T03:20:52.333Z,8.20
2023-05-18T03:23:20.677Z,8.20
2023-05-18T03:25:54.545Z,8.20
2023-05-18T03:28:22.809Z,8.20
2023-05-18T03:30:51.070Z,8.20
2023-05-18T03:33:19.311Z,8.20
2023-05-18T03:35:48.715Z,8.20
2023-05-18T03:38:18.698Z,8.10
2023-05-18T03:40:46.901Z,8.10
2023-05-18T03:43:15.019Z,8.00
2023-05-18T03:45:43.163Z,8.10
2023-05-18T03:48:11.306Z,8.00
2023-05-18T03:50:39.473Z,8.10
2023-05-18T03:53:07.666Z,8.10
2023-05-18T03:55:37.252Z,8.00
2023-05-18T03:58:05.391Z,8.00
2023-05-18T04:00:33.556Z,8.00
2023-05-18T04:03:03.324Z,8.00
2023-05-18T04:05:31.783Z,8.00
2023-05-18T04:08:00.282Z,8.00
2023-05-18T04:10:28.399Z,8.00
2023-05-18T04:12:58.176Z,7.90
2023-05-18T04:15:26.355Z,7.90
2023-05-18T04:17:54.518Z,7.90
2023-05-18T04:20:23.237Z,7.90
2023-05-18T04:22:51.305Z,7.90
2023-05-18T04:25:20.337Z,7.90
2023-05-18T04:27:51.493Z,7.90
2023-05-18T04:30:23.287Z,7.90
2023-05-18T04:32:51.659Z,7.90
2023-05-18T04:35:19.848Z,7.90
2023-05-18T04:37:47.945Z,7.90
2023-05-18T04:40:17.463Z,7.90
2023-05-18T04:42:47.568Z,7.90
2023-05-18T04:45:17.798Z,7.90
2023-05-18T04:47:48.485Z,8.00
2023-05-18T04:50:17.524Z,8.00
2023-05-18T04:52:48.712Z,8.00
2023-05-18T04:55:23.111Z,8.10
2023-05-18T04:57:54.009Z,8.10
2023-05-18T05:00:22.491Z,8.20
2023-05-18T05:02:52.214Z,8.20
2023-05-18T05:05:20.705Z,8.20
2023-05-18T05:07:50.385Z,8.30
2023-05-18T05:10:18.650Z,8.50
2023-05-18T05:12:49.315Z,8.30
2023-05-18T05:15:17.961Z,8.60
2023-05-18T05:20:17.658Z,8.70
2023-05-18T05:22:46.236Z,8.80
2023-05-18T05:25:14.426Z,8.80
2023-05-18T05:27:42.595Z,8.80
2023-05-18T05:30:11.412Z,8.80
2023-05-18T05:32:39.603Z,8.90
2023-05-18T05:35:08.320Z,9.00
2023-05-18T05:37:37.888Z,9.20
2023-05-18T05:42:35.005Z,9.30
2023-05-18T05:45:03.256Z,9.50
2023-05-18T05:47:31.479Z,9.40
2023-05-18T05:49:59.670Z,9.50
2023-05-18T05:52:28.936Z,9.60
2023-05-18T05:54:58.658Z,9.70
2023-05-18T05:57:26.954Z,9.70
2023-05-18T05:59:55.056Z,9.90
2023-05-18T06:12:18.467Z,10.50
2023-05-18T06:14:46.635Z,10.40
2023-05-18T06:17:14.861Z,10.50
2023-05-18T06:19:43.233Z,10.50
2023-05-18T06:22:11.426Z,10.60
2023-05-18T06:24:39.821Z,10.70
2023-05-18T06:27:07.945Z,10.80
2023-05-18T06:29:37.479Z,10.90
2023-05-18T06:32:06.304Z,11.00
2023-05-18T06:34:34.533Z,11.10
2023-05-18T06:37:02.659Z,11.10
2023-05-18T06:39:30.815Z,11.20
2023-05-18T06:41:58.986Z,11.40
2023-05-18T06:44:27.247Z,11.70
2023-05-18T06:46:56.717Z,11.70
2023-05-18T06:49:24.829Z,11.80
2023-05-18T06:51:53.078Z,11.90
2023-05-18T06:54:22.043Z,12.10
2023-05-18T06:56:50.243Z,12.00
2023-05-18T06:59:18.404Z,12.10
2023-05-18T07:01:46.629Z,12.30
2023-05-18T07:04:16.457Z,12.50
2023-05-18T07:06:44.709Z,12.50
2023-05-18T07:09:12.900Z,12.70
2023-05-18T07:11:41.147Z,12.90
2023-05-18T07:14:09.262Z,12.90
2023-05-18T07:16:37.529Z,13.00
2023-05-18T07:19:05.821Z,12.90
2023-05-18T07:21:35.511Z,13.10
2023-05-18T07:24:03.697Z,13.20
2023-05-18T07:26:32.586Z,13.50
2023-05-18T07:29:00.724Z,13.80
2023-05-18T07:31:29.004Z,14.10
2023-05-18T07:33:57.178Z,14.20
2023-05-18T07:36:25.652Z,14.50
2023-05-18T07:38:56.809Z,14.80
2023-05-18T07:41:25.080Z,15.00
2023-05-18T07:46:24.843Z,15.80
2023-05-18T07:51:21.526Z,16.50
2023-05-18T07:53:49.686Z,16.70
2023-05-18T07:56:19.172Z,16.70
2023-05-18T08:13:39.573Z,18.40
2023-05-18T08:21:10.168Z,19.00
2023-05-18T08:31:07.282Z,19.50
2023-05-18T08:33:35.417Z,19.50
2023-05-18T08:36:03.633Z,19.50
2023-05-18T08:38:32.182Z,19.30
2023-05-18T08:41:07.205Z,19.60
2023-05-18T08:43:39.222Z,19.70
2023-05-18T08:46:18.148Z,19.40
2023-05-18T08:48:47.340Z,19.30
2023-05-18T08:51:20.577Z,19.40
2023-05-18T08:53:53.537Z,19.90
2023-05-18T08:56:24.589Z,19.80
2023-05-18T08:58:56.704Z,20.40
2023-05-18T09:01:29.268Z,20.60
